Latest Weather Observations for Truscott

IDW60801

Issued at 3:03 pm WST Sunday 1 February 2015 (issued every 30 minutes, with the page automatically refreshed every 10 minutes)

About weather observations | Map of weather stations | Latest weather observations for WA | Other Formats
Station Details ID: 001020 Name: TRUSCOTT Lat: -14.09 Lon: 126.39 Height: 51.0 m
Data from the previous 72 hours. | See also: Recent months at Truscott
Date/Time
WST
Temp
°C
App
Temp
°C
Dew
Point
Rel
Hum
%
Delta-T
°C
Wind Press
QNH
hPa
Press
MSL
hPa
Rain
since 9 am
mm
Dir
 
Spd
km/h
Gust
km/h
Spd
kts
Gust
kts
01/03:00pm 30.8 32.7 24.4 68 4.5 W 22 30 12 16 1006.0 1005.9 0.0
01/02:30pm 31.0 33.5 26.0 74 3.6 W 24 26 13 14 1006.0 - 0.0
01/02:00pm 31.0 33.5 26.0 74 3.6 W 24 - 13 - 1006.0 - 0.0
01/01:30pm 31.0 32.5 25.0 70 4.2 W 26 - 14 - 1006.0 - 0.0
01/01:00pm 31.0 32.5 25.0 70 4.2 W 26 - 14 - 1007.0 - 0.0
01/12:30pm 31.0 33.5 26.0 74 3.6 W 24 - 13 - 1008.0 - 0.0
01/12:00pm 31.1 33.1 25.2 71 4.2 W 24 - 13 - 1008.0 1007.9 0.0
01/11:30am 32.0 34.8 25.0 66 4.9 WSW 19 - 10 - 1008.0 - 0.0
01/11:00am 30.0 32.7 25.0 74 3.5 W 20 - 11 - 1009.0 - 0.0
01/10:30am 30.0 32.8 25.0 74 3.5 W 19 26 10 14 1009.0 - 0.0
01/10:00am 30.0 32.3 25.0 74 3.5 W 22 - 12 - 1009.0 - 0.0
01/09:30am 30.0 32.7 25.0 74 3.5 WSW 20 - 11 - 1010.0 - 0.0
01/09:00am 29.5 31.0 24.4 74 3.6 W 24 - 13 - 1010.0 1009.4 2.2
01/08:30am 30.0 32.8 25.0 74 3.5 WSW 19 - 10 - 1010.0 - 2.2
01/08:00am 29.0 31.0 24.0 74 3.5 W 20 - 11 - 1010.0 - 2.2
01/07:30am 29.0 32.6 25.0 79 2.8 W 15 - 8 - 1010.0 - 2.2
01/07:00am 28.0 30.6 24.0 79 2.8 W 17 - 9 - 1010.0 - 2.2
01/06:30am 28.0 32.0 25.0 84 2.1 W 13 - 7 - 1009.0 - 2.2
01/06:00am 27.8 31.2 24.6 83 2.2 WSW 15 17 8 9 1009.0 1008.8 2.2
01/05:30am 28.0 31.6 25.0 84 2.1 WSW 15 - 8 - 1009.0 - 2.2
01/05:00am 27.0 31.0 25.0 89 1.4 WSW 13 - 7 - 1008.0 - 2.2
01/04:30am 26.0 30.7 25.0 94 0.7 WSW 9 - 5 - 1008.0 - 2.2
01/04:00am 25.0 29.7 24.0 94 0.7 WNW 6 - 3 - 1008.0 - 2.0
01/03:30am 25.0 30.1 24.0 94 0.7 NW 4 - 2 - 1008.0 - 2.0
01/03:13am 25.0 30.1 24.0 94 0.7 E 4 - 2 - 1007.0 - 2.0
01/03:00am 24.9 28.5 23.1 90 1.2 NNE 9 - 5 - 1007.0 1007.3 1.8
01/02:54am 26.0 29.6 23.0 83 2.0 E 9 - 5 - 1008.0 - 0.6
01/02:30am 28.0 32.7 25.0 84 2.1 WSW 9 9 5 5 1008.0 - 0.0
01/02:00am 28.0 32.0 25.0 84 2.1 WSW 13 - 7 - 1008.0 - 0.0
01/01:30am 28.0 32.0 25.0 84 2.1 WSW 13 - 7 - 1007.0 - 0.0
01/01:00am 29.0 32.2 25.0 79 2.8 W 17 - 9 - 1008.0 - 0.0
01/12:30am 29.0 31.8 25.0 79 2.8 W 19 - 10 - 1008.0 - 0.0
01/12:00am 28.5 30.8 24.5 79 2.8 W 20 28 11 15 1008.0 1007.6 0.0
 
Date/Time
WST
Temp
°C
App
Temp
°C
Dew
Point
Rel
Hum
%
Delta-T
°C
Wind Press
QNH
hPa
Press
MSL
hPa
Rain
since 9 am
mm
Dir
 
Spd
km/h
Gust
km/h
Spd
kts
Gust
kts
31/11:30pm 28.0 30.8 25.0 84 2.1 W 19 - 10 - 1008.0 - 0.0
31/11:00pm 29.0 31.8 25.0 79 2.8 W 19 - 10 - 1009.0 - 0.0
31/10:30pm 29.0 31.0 24.0 74 3.5 W 20 - 11 - 1009.0 - 0.0
31/10:00pm 29.0 31.6 24.0 74 3.5 W 17 - 9 - 1009.0 - 0.0
31/09:30pm 29.0 31.6 24.0 74 3.5 W 17 - 9 - 1009.0 - 0.0
31/09:00pm 28.6 31.5 23.9 75 3.3 W 15 - 8 - 1008.0 1008.1 0.0
31/08:30pm 29.0 31.2 24.0 74 3.5 W 19 - 10 - 1008.0 - 0.0
31/08:00pm 29.0 32.0 24.0 74 3.5 W 15 - 8 - 1008.0 - 0.0
31/07:30pm 29.0 31.6 24.0 74 3.5 W 17 - 9 - 1007.0 - 0.0
31/07:00pm 29.0 32.0 24.0 74 3.5 W 15 - 8 - 1007.0 - 0.0
31/06:30pm 29.0 31.0 23.0 70 4.1 W 17 - 9 - 1007.0 - 0.0
31/06:00pm 29.3 31.4 23.7 72 3.9 W 19 24 10 13 1006.0 1006.0 0.0
31/05:30pm 30.0 31.7 23.0 66 4.8 W 19 - 10 - 1006.0 - 0.0
31/05:00pm 30.0 31.5 23.0 66 4.8 W 20 - 11 - 1006.0 - 0.0
31/04:30pm 30.0 31.7 24.0 70 4.2 WSW 22 - 12 - 1005.0 - 0.0
31/04:00pm 30.0 31.3 24.0 70 4.2 W 24 - 13 - 1005.0 - 0.0
31/03:30pm 31.0 33.2 24.0 66 4.9 W 19 - 10 - 1005.0 - 0.0
31/03:00pm 30.1 31.9 23.5 67 4.6 W 20 - 11 - 1006.0 1005.6 0.0
31/02:30pm 30.0 32.0 24.0 70 4.2 W 20 - 11 - 1006.0 - 0.0
31/02:00pm 30.0 31.1 23.0 66 4.8 W 22 - 12 - 1006.0 - 0.0
31/01:30pm 31.0 31.7 23.0 62 5.5 W 24 - 13 - 1007.0 - 0.0
31/01:00pm 31.0 32.1 23.0 62 5.5 W 22 - 12 - 1007.0 - 0.0
31/12:30pm 31.0 31.2 22.0 58 6.1 W 24 - 13 - 1007.0 - 0.0
31/12:00pm 31.6 33.2 22.9 60 6.0 W 19 - 10 - 1008.0 1007.6 0.0
31/11:30am 31.0 31.5 22.0 58 6.1 W 22 - 12 - 1008.0 - 0.0
31/11:00am 31.0 32.7 23.0 62 5.5 W 19 - 10 - 1008.0 - 0.0
31/10:30am 31.0 33.0 23.0 62 5.5 W 17 - 9 - 1009.0 - 0.0
31/10:00am 30.0 32.0 23.0 66 4.8 W 17 - 9 - 1009.0 - 0.0
31/09:30am 31.0 33.4 23.0 62 5.5 WSW 15 - 8 - 1009.0 - 0.0
31/09:00am 30.3 31.7 21.9 60 5.7 WSW 17 - 9 - 1009.0 1009.2 2.0
31/08:30am 30.0 31.5 22.0 62 5.4 WSW 17 - 9 - 1009.0 - 2.0
31/08:00am 29.0 31.0 23.0 70 4.1 WSW 17 - 9 - 1009.0 - 1.8
31/07:30am 29.0 32.0 24.0 74 3.5 WSW 15 - 8 - 1009.0 - 1.8
31/07:00am 29.0 31.4 23.0 70 4.1 WSW 15 - 8 - 1009.0 - 1.8
31/06:30am 28.0 32.1 24.0 79 2.8 SW 9 - 5 - 1008.0 - 1.8
31/06:00am 26.7 31.8 24.9 90 1.3 SW 7 - 4 - 1008.0 1007.9 1.8
31/05:30am 26.0 30.7 25.0 94 0.7 SW 9 - 5 - 1008.0 - 1.8
31/05:00am 26.0 30.7 25.0 94 0.7 SW 9 - 5 - 1008.0 - 1.8
31/04:30am 27.0 31.7 25.0 89 1.4 SW 9 - 5 - 1007.0 - 1.8
31/04:00am 27.0 31.7 25.0 89 1.4 SW 9 - 5 - 1007.0 - 1.8
31/03:30am 27.0 31.4 25.0 89 1.4 SW 11 - 6 - 1007.0 - 1.8
31/03:00am 26.6 30.8 24.8 90 1.3 SW 11 - 6 - 1007.0 1007.1 1.8
31/02:30am 27.0 32.1 25.0 89 1.4 SW 7 - 4 - 1008.0 - 1.8
31/02:00am 27.0 32.1 25.0 89 1.4 SW 7 - 4 - 1007.0 - 1.8
31/01:30am 27.0 32.3 25.0 89 1.4 WSW 6 - 3 - 1007.0 - 1.8
31/01:00am 26.0 31.7 25.0 94 0.7 WSW 4 - 2 - 1007.0 - 1.8
31/12:30am 27.0 32.1 25.0 89 1.4 WSW 7 - 4 - 1008.0 - 1.8
31/12:00am 26.2 31.5 25.2 94 0.7 WSW 7 - 4 - 1008.0 1007.6 1.8
 
Date/Time
WST
Temp
°C
App
Temp
°C
Dew
Point
Rel
Hum
%
Delta-T
°C
Wind Press
QNH
hPa
Press
MSL
hPa
Rain
since 9 am
mm
Dir
 
Spd
km/h
Gust
km/h
Spd
kts
Gust
kts
30/11:30pm 26.0 32.5 25.0 94 0.7 CALM 0 - 0 - 1008.0 - 1.8
30/11:00pm 26.0 31.8 24.0 89 1.4 CALM 0 - 0 - 1009.0 - 1.8
30/10:30pm 25.0 27.2 24.0 94 0.7 WNW 19 - 10 - 1009.0 - 1.4
30/10:00pm 26.0 28.4 23.0 83 2.0 W 15 - 8 - 1009.0 - 0.0
30/09:30pm 29.0 32.6 25.0 79 2.8 W 15 - 8 - 1009.0 - 0.0
30/09:00pm 28.6 32.5 24.8 80 2.7 W 13 - 7 - 1008.0 1008.3 0.0
30/08:30pm 29.0 33.5 24.0 74 3.5 WSW 7 - 4 - 1008.0 - 0.0
30/08:00pm 29.0 33.1 24.0 74 3.5 WSW 9 - 5 - 1008.0 - 0.0
30/07:30pm 29.0 32.6 23.0 70 4.1 WSW 9 - 5 - 1007.0 - 0.0
30/07:00pm 29.0 32.6 23.0 70 4.1 WSW 9 - 5 - 1007.0 - 0.0
30/06:30pm 29.0 31.8 23.0 70 4.1 WSW 13 - 7 - 1006.0 - 0.0
30/06:00pm 29.0 31.7 23.4 72 3.9 W 15 - 8 - 1006.0 1005.6 0.0
30/05:30pm 30.0 31.7 23.0 66 4.8 W 19 - 10 - 1005.0 - 0.0
30/05:00pm 30.0 32.0 23.0 66 4.8 W 17 - 9 - 1005.0 - 0.0
30/04:30pm 30.0 32.6 24.0 70 4.2 WNW 17 - 9 - 1005.0 - 0.0
30/04:00pm 30.0 32.0 24.0 70 4.2 W 20 - 11 - 1005.0 - 0.0
30/03:30pm 30.0 32.0 24.0 70 4.2 W 20 - 11 - 1005.0 - 0.0
30/03:00pm 30.5 31.9 22.9 64 5.2 W 20 - 11 - 1005.0 1005.3 0.0
30/02:30pm 31.0 32.1 23.0 62 5.5 W 22 - 12 - 1005.0 - 0.0
30/02:00pm 32.0 33.5 23.0 59 6.2 W 20 - 11 - 1005.0 - 0.0
30/01:30pm 32.0 34.2 24.0 62 5.6 W 19 - 10 - 1006.0 - 0.0
30/01:00pm 31.0 32.5 23.0 62 5.5 W 20 - 11 - 1006.0 - 0.0
30/12:30pm 31.0 31.9 22.0 58 6.1 W 20 - 11 - 1006.0 - 0.0
30/12:00pm 31.1 32.4 21.6 57 6.4 W 17 - 9 - 1007.0 1006.8 0.0
30/11:30am 32.0 33.0 21.0 52 7.4 W 17 - 9 - 1007.0 - 0.0
30/11:00am 31.0 32.1 22.0 58 6.1 WSW 19 - 10 - 1008.0 - 0.0
30/10:30am 31.0 32.9 22.0 58 6.1 W 15 - 8 - 1008.0 - 0.0
30/10:00am 30.0 33.2 23.0 66 4.8 W 11 - 6 - 1009.0 - 0.0
30/09:30am 30.0 33.8 24.0 70 4.2 WNW 11 - 6 - 1009.0 - 0.0
30/09:00am 29.1 31.7 22.6 68 4.4 W 13 - 7 - 1009.0 1008.7 0.0
30/08:30am 29.0 32.6 23.0 70 4.1 W 9 - 5 - 1008.0 - 0.0
30/08:00am 28.0 31.0 22.0 70 4.0 W 9 - 5 - 1008.0 - 0.0
30/07:30am 27.0 30.0 22.0 74 3.4 W 9 - 5 - 1008.0 - 0.0
30/07:00am 27.0 30.6 23.0 79 2.7 WSW 9 - 5 - 1008.0 - 0.0
30/06:30am 26.0 29.6 23.0 83 2.0 W 9 - 5 - 1007.0 - 0.0
30/06:00am 25.5 28.6 22.8 85 1.8 WSW 11 - 6 - 1007.0 1007.0 0.0
30/05:30am 25.0 28.9 23.0 89 1.4 SW 7 - 4 - 1007.0 - 0.0
30/05:00am 25.0 28.9 23.0 89 1.4 W 7 - 4 - 1006.0 - 0.0
30/04:30am 25.0 29.1 23.0 89 1.4 WSW 6 - 3 - 1006.0 - 0.0
30/04:00am 26.0 29.6 23.0 83 2.0 SSW 9 - 5 - 1006.0 - 0.0
30/03:30am 25.0 28.6 23.0 89 1.4 SW 9 - 5 - 1006.0 - 0.0
30/03:00am 25.6 30.3 23.3 87 1.6 ESE 4 - 2 - 1006.0 1005.4 0.0
30/02:30am 26.0 29.6 23.0 83 2.0 E 9 - 5 - 1006.0 - 0.0
30/02:00am 26.0 29.6 22.0 78 2.7 ESE 6 - 3 - 1006.0 - 0.0
30/01:30am 26.0 29.0 22.0 78 2.7 S 9 - 5 - 1006.0 - 0.0
30/01:00am 27.0 29.3 22.0 74 3.4 S 13 - 7 - 1007.0 - 0.0
30/12:30am 27.0 28.9 22.0 74 3.4 S 15 - 8 - 1007.0 - 0.0
30/12:00am 27.6 31.7 24.6 84 2.1 SW 11 - 6 - 1007.0 1007.1 0.0
 
Date/Time
WST
Temp
°C
App
Temp
°C
Dew
Point
Rel
Hum
%
Delta-T
°C
Wind Press
QNH
hPa
Press
MSL
hPa
Rain
since 9 am
mm
Dir
 
Spd
km/h
Gust
km/h
Spd
kts
Gust
kts
29/11:30pm 28.0 33.3 25.0 84 2.1 W 6 - 3 - 1008.0 - 0.0
29/11:00pm 28.0 33.1 25.0 84 2.1 W 7 - 4 - 1008.0 - 0.0
29/10:30pm 28.0 33.1 25.0 84 2.1 W 7 - 4 - 1008.0 - 0.0
29/10:00pm 28.0 33.1 25.0 84 2.1 WSW 7 - 4 - 1008.0 - 0.0
29/09:30pm 28.0 32.7 25.0 84 2.1 W 9 - 5 - 1008.0 - 0.0
29/09:00pm 28.1 33.0 24.7 82 2.4 W 7 - 4 - 1008.0 1007.8 0.0
29/08:30pm 28.0 32.4 25.0 84 2.1 W 11 - 6 - 1008.0 - 0.0
29/08:00pm 28.0 31.8 24.0 79 2.8 W 11 - 6 - 1007.0 - 0.0
29/07:30pm 29.0 33.1 24.0 74 3.5 W 9 - 5 - 1007.0 - 0.0
29/07:00pm 28.0 32.5 24.0 79 2.8 NW 7 - 4 - 1006.0 - 0.0
29/06:30pm 28.0 32.1 24.0 79 2.8 NW 9 - 5 - 1006.0 - 0.0
29/06:00pm 28.5 32.4 23.6 75 3.4 NW 9 - 5 - 1005.0 1004.8 0.0
29/05:30pm 29.0 32.8 24.0 74 3.5 NW 11 - 6 - 1005.0 - 0.0
29/05:00pm 29.0 32.2 23.0 70 4.1 N 11 - 6 - 1004.0 - 0.0
29/04:30pm 29.0 31.8 23.0 70 4.1 NNW 13 - 7 - 1004.0 - 0.0
29/04:00pm 30.0 32.8 23.0 66 4.8 NNW 13 - 7 - 1004.0 - 0.0
29/03:30pm 30.0 33.6 23.0 66 4.8 NW 9 - 5 - 1003.0 - 0.0

Other Formats:

Comma delimited format used in spreadsheet applications
http://www.bom.gov.au/fwo/IDW60801/IDW60801.95101.axf

JavaScript Object Notation format (JSON) in row-major order
http://www.bom.gov.au/fwo/IDW60801/IDW60801.95101.json